createdAt,value
2023-05-14T00:00:37.153Z,87.58
2023-05-14T00:03:03.490Z,89.05
2023-05-14T00:05:29.803Z,90.64
2023-05-14T00:07:56.095Z,91.54
2023-05-14T00:10:22.701Z,92.31
2023-05-14T00:12:49.110Z,95.60
2023-05-14T00:15:15.350Z,97.39
2023-05-14T00:17:41.641Z,97.37
2023-05-14T00:20:07.901Z,97.01
2023-05-14T00:22:34.128Z,96.42
2023-05-14T00:25:00.371Z,95.96
2023-05-14T00:27:26.611Z,95.05
2023-05-14T00:29:52.843Z,94.04
2023-05-14T00:32:19.114Z,93.70
2023-05-14T00:34:45.404Z,93.56
2023-05-14T00:37:11.667Z,92.63
2023-05-14T00:39:37.918Z,92.72
2023-05-14T00:42:04.137Z,93.16
2023-05-14T00:44:30.405Z,93.39
2023-05-14T00:46:56.728Z,94.40
2023-05-14T00:49:23.003Z,93.78
2023-05-14T00:51:49.232Z,93.63
2023-05-14T00:54:15.596Z,93.78
2023-05-14T00:56:41.872Z,94.21
2023-05-14T00:59:08.124Z,94.58
2023-05-14T01:01:34.527Z,93.63
2023-05-14T01:04:01.121Z,94.16
2023-05-14T01:06:27.492Z,94.64
2023-05-14T01:08:53.762Z,94.49
2023-05-14T01:11:20.055Z,94.91
2023-05-14T01:13:46.307Z,94.90
2023-05-14T01:16:12.614Z,95.04
2023-05-14T01:18:38.913Z,94.95
2023-05-14T01:21:05.171Z,94.10
2023-05-14T01:23:31.463Z,94.11
2023-05-14T01:25:57.768Z,94.17
2023-05-14T01:28:24.047Z,93.56
2023-05-14T01:30:50.321Z,93.74
2023-05-14T01:33:16.560Z,94.08
2023-05-14T01:35:42.811Z,94.41
2023-05-14T01:38:09.063Z,93.07
2023-05-14T01:40:35.313Z,92.79
2023-05-14T01:43:01.692Z,93.93
2023-05-14T01:45:27.951Z,93.50
2023-05-14T01:47:54.331Z,93.51
2023-05-14T01:50:20.708Z,93.72
2023-05-14T01:52:46.968Z,94.47
2023-05-14T01:55:13.300Z,94.23
2023-05-14T01:57:39.613Z,94.33
2023-05-14T02:00:05.864Z,93.87
2023-05-14T02:02:32.098Z,94.87
2023-05-14T02:04:58.328Z,94.99
2023-05-14T02:07:24.579Z,95.68
2023-05-14T02:09:50.829Z,95.86
2023-05-14T02:12:17.047Z,97.10
2023-05-14T02:14:43.294Z,97.49
2023-05-14T02:17:09.611Z,96.66
2023-05-14T02:19:35.857Z,96.21
2023-05-14T02:22:02.093Z,96.67
2023-05-14T02:24:28.344Z,97.85
2023-05-14T02:26:54.594Z,99.56
2023-05-14T02:29:20.862Z,99.35
2023-05-14T02:31:47.191Z,97.78
2023-05-14T02:34:13.476Z,96.23
2023-05-14T02:36:39.698Z,96.29
2023-05-14T02:39:05.933Z,97.93
2023-05-14T02:41:32.228Z,100.00
2023-05-14T02:43:58.483Z,100.00
2023-05-14T02:46:24.812Z,100.00
2023-05-14T02:48:51.129Z,100.00
2023-05-14T02:51:17.368Z,100.00
2023-05-14T02:53:43.619Z,100.00
2023-05-14T02:56:09.872Z,100.00
2023-05-14T02:58:36.092Z,100.00
2023-05-14T03:01:02.417Z,100.00
2023-05-14T03:03:29.398Z,100.00
2023-05-14T03:05:56.244Z,100.00
2023-05-14T03:08:22.531Z,100.00
2023-05-14T03:10:48.775Z,100.00
2023-05-14T03:13:15.032Z,100.00
2023-05-14T03:15:41.288Z,100.00
2023-05-14T03:18:07.613Z,100.00
2023-05-14T03:20:33.897Z,100.00
2023-05-14T03:23:00.165Z,100.00
2023-05-14T03:25:26.406Z,100.00
2023-05-14T03:27:52.675Z,100.00
2023-05-14T03:30:18.930Z,100.00
2023-05-14T03:32:45.227Z,100.00
2023-05-14T03:35:11.488Z,100.00
2023-05-14T03:37:37.769Z,100.00
2023-05-14T03:40:04.009Z,100.00
2023-05-14T03:42:30.251Z,100.00
2023-05-14T03:44:56.493Z,100.00
2023-05-14T03:47:22.753Z,100.00
2023-05-14T03:49:49.017Z,99.02
2023-05-14T03:52:15.264Z,98.94
2023-05-14T03:54:41.496Z,96.96
2023-05-14T03:57:07.740Z,96.82
2023-05-14T03:59:33.973Z,97.41
2023-05-14T04:02:00.211Z,97.02
2023-05-14T04:04:26.569Z,96.44
2023-05-14T04:06:52.825Z,95.83
2023-05-14T04:09:19.117Z,96.15
2023-05-14T04:11:45.425Z,95.79
2023-05-14T04:14:11.652Z,96.05
2023-05-14T04:16:37.928Z,95.48
2023-05-14T04:19:04.277Z,95.84
2023-05-14T04:21:30.578Z,96.59
2023-05-14T04:23:56.904Z,95.03
2023-05-14T04:26:23.217Z,96.94
2023-05-14T04:28:49.484Z,98.80
2023-05-14T04:31:15.789Z,99.51
2023-05-14T04:33:42.022Z,100.00
2023-05-14T04:36:08.289Z,100.00
2023-05-14T04:38:34.522Z,100.00
2023-05-14T04:41:00.776Z,100.00
2023-05-14T04:43:27.059Z,99.04
2023-05-14T04:45:53.389Z,95.46
2023-05-14T04:48:19.652Z,95.71
2023-05-14T04:50:45.892Z,94.79
2023-05-14T04:53:12.175Z,99.22
2023-05-14T04:55:38.426Z,99.52
2023-05-14T04:58:04.662Z,98.10
2023-05-14T05:00:30.893Z,96.35
2023-05-14T05:02:57.185Z,95.43
2023-05-14T05:05:23.453Z,97.13
2023-05-14T05:07:49.708Z,96.07
2023-05-14T05:10:15.972Z,97.24
2023-05-14T05:12:42.245Z,99.63
2023-05-14T05:15:08.495Z,98.99
2023-05-14T05:17:34.798Z,100.00
2023-05-14T05:20:01.117Z,98.07
2023-05-14T05:22:27.392Z,95.83
2023-05-14T05:24:53.653Z,96.36
2023-05-14T05:27:19.886Z,97.40
2023-05-14T05:29:46.160Z,97.38
2023-05-14T05:32:12.503Z,97.62
2023-05-14T05:34:38.732Z,99.23
2023-05-14T05:37:04.981Z,98.06
2023-05-14T05:39:31.232Z,98.74
2023-05-14T05:41:57.459Z,96.36
2023-05-14T05:44:23.682Z,96.25
2023-05-14T05:46:49.968Z,95.50
2023-05-14T05:49:16.272Z,93.85
2023-05-14T05:51:42.543Z,92.73
2023-05-14T05:54:08.752Z,92.11
2023-05-14T05:56:34.998Z,90.91
2023-05-14T05:59:01.216Z,90.75
2023-05-14T06:01:27.504Z,91.26
2023-05-14T06:03:53.810Z,92.49
2023-05-14T06:06:20.069Z,94.41
2023-05-14T06:08:46.306Z,94.53
2023-05-14T06:11:12.543Z,93.85
2023-05-14T06:13:38.826Z,94.36
2023-05-14T06:16:05.113Z,93.41
2023-05-14T06:18:31.447Z,89.04
2023-05-14T06:20:57.817Z,89.55
2023-05-14T06:23:24.114Z,92.41
2023-05-14T06:25:50.851Z,90.73
2023-05-14T06:28:17.237Z,91.06
2023-05-14T06:30:43.526Z,91.97
2023-05-14T06:33:09.812Z,89.49
2023-05-14T06:35:36.161Z,89.94
2023-05-14T06:38:02.410Z,89.17
2023-05-14T06:40:29.822Z,86.81
2023-05-14T06:42:56.072Z,92.03
2023-05-14T06:45:22.342Z,91.22
2023-05-14T06:47:48.614Z,85.77
2023-05-14T06:50:14.918Z,85.20
2023-05-14T06:52:41.191Z,87.13
2023-05-14T06:55:07.437Z,84.50
2023-05-14T06:57:33.727Z,85.05
2023-05-14T07:00:00.095Z,87.55
2023-05-14T07:02:26.436Z,84.66
2023-05-14T07:04:52.766Z,82.64
2023-05-14T07:07:19.001Z,78.28
2023-05-14T07:09:45.251Z,82.89
2023-05-14T07:12:11.500Z,85.53
2023-05-14T07:14:37.721Z,80.83
2023-05-14T07:17:03.993Z,80.19
2023-05-14T07:19:30.324Z,75.22
2023-05-14T07:21:56.544Z,76.63
2023-05-14T07:24:22.784Z,73.91
2023-05-14T07:26:49.012Z,72.51
2023-05-14T07:29:15.320Z,75.77
2023-05-14T07:31:41.646Z,71.69
2023-05-14T07:34:07.906Z,76.11
2023-05-14T07:36:34.161Z,74.99
2023-05-14T07:39:00.383Z,73.34
2023-05-14T07:41:26.625Z,74.44
2023-05-14T07:43:52.858Z,70.93
2023-05-14T07:46:19.074Z,70.56
2023-05-14T07:48:45.673Z,68.19
2023-05-14T07:51:11.997Z,69.45
2023-05-14T07:53:38.219Z,70.45
2023-05-14T07:56:04.480Z,71.76
2023-05-14T07:58:30.785Z,71.61
2023-05-14T08:00:57.038Z,72.73
2023-05-14T08:03:23.548Z,73.40
2023-05-14T08:05:49.865Z,71.73
2023-05-14T08:08:16.108Z,73.84
2023-05-14T08:10:42.398Z,72.25
2023-05-14T08:13:08.661Z,72.41
2023-05-14T08:15:34.905Z,76.94
2023-05-14T08:18:01.290Z,75.51
2023-05-14T08:20:27.813Z,75.37
2023-05-14T08:22:54.182Z,74.09
2023-05-14T08:25:20.445Z,75.87
2023-05-14T08:27:46.706Z,76.27
2023-05-14T08:30:12.994Z,74.27
2023-05-14T08:32:39.289Z,75.08
2023-05-14T08:35:05.557Z,68.63
2023-05-14T08:37:31.806Z,71.95
2023-05-14T08:39:58.101Z,72.39
2023-05-14T08:42:24.355Z,71.22
2023-05-14T08:44:50.586Z,66.10
2023-05-14T08:47:16.826Z,67.52
2023-05-14T08:49:43.051Z,62.17
2023-05-14T08:52:09.356Z,61.26
2023-05-14T08:54:35.622Z,59.87
2023-05-14T08:57:01.848Z,63.21
2023-05-14T08:59:28.099Z,58.26
2023-05-14T09:01:54.388Z,58.67
2023-05-14T09:04:20.794Z,61.02
2023-05-14T09:06:47.166Z,62.67
2023-05-14T09:09:13.416Z,60.67
2023-05-14T09:11:39.656Z,59.76
2023-05-14T09:14:05.910Z,59.49
2023-05-14T09:16:32.202Z,63.80
2023-05-14T09:18:58.572Z,61.54
2023-05-14T09:21:24.844Z,57.79
2023-05-14T09:23:51.085Z,54.93
2023-05-14T09:26:17.352Z,54.55
2023-05-14T09:28:43.639Z,57.21
2023-05-14T09:31:09.957Z,53.99
2023-05-14T09:33:36.208Z,57.43
2023-05-14T09:36:02.511Z,48.66
2023-05-14T09:38:28.804Z,48.26
2023-05-14T09:40:55.044Z,51.37
2023-05-14T09:43:21.291Z,54.52
2023-05-14T09:45:47.544Z,56.12
2023-05-14T09:48:13.879Z,57.25
2023-05-14T09:50:40.214Z,59.59
2023-05-14T09:53:06.452Z,61.85
2023-05-14T09:55:32.684Z,61.68
2023-05-14T09:57:58.914Z,66.80
2023-05-14T10:00:25.427Z,65.28
2023-05-14T10:02:51.911Z,62.26
2023-05-14T10:05:18.183Z,60.03
2023-05-14T10:07:44.419Z,59.93
2023-05-14T10:10:10.652Z,54.57
2023-05-14T10:12:36.902Z,54.83
2023-05-14T10:15:03.146Z,60.09
2023-05-14T10:17:29.474Z,57.48
2023-05-14T10:19:55.751Z,56.69
2023-05-14T10:22:22.029Z,59.94
2023-05-14T10:24:48.275Z,60.43
2023-05-14T10:27:14.538Z,60.75
2023-05-14T10:29:40.793Z,61.62
2023-05-14T10:32:07.175Z,62.66
2023-05-14T10:34:33.528Z,61.29
2023-05-14T10:36:59.791Z,61.06
2023-05-14T10:39:26.034Z,57.25
2023-05-14T10:41:52.289Z,59.23
2023-05-14T10:44:18.571Z,58.10
2023-05-14T10:46:44.828Z,62.61
2023-05-14T10:49:11.144Z,62.36
2023-05-14T10:51:37.549Z,63.45
2023-05-14T10:54:03.948Z,56.70
2023-05-14T10:56:30.195Z,57.63
2023-05-14T10:58:56.444Z,58.15
2023-05-14T11:01:22.707Z,59.74
2023-05-14T11:03:48.980Z,59.26
2023-05-14T11:06:15.355Z,54.33
2023-05-14T11:08:41.651Z,59.16
2023-05-14T11:11:09.299Z,56.56
2023-05-14T11:13:35.542Z,53.48
2023-05-14T11:16:08.688Z,51.12
2023-05-14T11:18:41.893Z,50.98
2023-05-14T11:21:08.353Z,52.07
2023-05-14T11:23:34.605Z,52.94
2023-05-14T11:26:00.909Z,56.70
2023-05-14T11:28:27.224Z,52.40
2023-05-14T11:30:53.492Z,55.09
2023-05-14T11:33:19.806Z,53.53
2023-05-14T11:35:46.075Z,52.25
2023-05-14T11:38:12.326Z,49.09
2023-05-14T11:40:38.554Z,52.65
2023-05-14T11:43:04.795Z,52.02
2023-05-14T11:45:31.019Z,51.82
2023-05-14T11:47:57.474Z,53.63
2023-05-14T11:50:24.193Z,51.69
2023-05-14T11:52:50.622Z,51.99
2023-05-14T11:55:16.918Z,51.90
2023-05-14T11:57:43.168Z,51.69
2023-05-14T12:00:09.411Z,49.86
2023-05-14T12:02:35.735Z,49.99
2023-05-14T12:05:02.053Z,50.37
2023-05-14T12:07:28.436Z,50.53
2023-05-14T12:09:54.665Z,51.35
2023-05-14T12:12:20.899Z,50.77
2023-05-14T12:14:47.152Z,51.41
2023-05-14T12:17:13.436Z,52.69
2023-05-14T12:19:39.669Z,49.35
2023-05-14T12:22:05.917Z,49.14
2023-05-14T12:24:32.177Z,48.74
2023-05-14T12:26:58.392Z,49.92
2023-05-14T12:29:24.664Z,50.81
2023-05-14T12:31:51.043Z,48.83
2023-05-14T12:34:17.394Z,49.33
2023-05-14T12:36:43.618Z,47.35
2023-05-14T12:39:09.849Z,47.12
2023-05-14T12:41:36.098Z,48.91
2023-05-14T12:44:02.348Z,49.27
2023-05-14T12:46:28.599Z,49.48
2023-05-14T12:48:54.925Z,51.58
2023-05-14T12:51:21.154Z,46.99
2023-05-14T12:53:47.478Z,45.89
2023-05-14T12:56:13.734Z,46.57
2023-05-14T12:58:39.971Z,47.17
2023-05-14T13:01:06.255Z,46.38
2023-05-14T13:03:32.535Z,45.90
2023-05-14T13:05:58.778Z,47.33
2023-05-14T13:08:25.036Z,44.36
2023-05-14T13:10:51.252Z,44.19
2023-05-14T13:13:17.511Z,44.61
2023-05-14T13:15:43.748Z,44.80
2023-05-14T13:18:10.080Z,44.10
2023-05-14T13:20:36.444Z,44.98
2023-05-14T13:23:02.701Z,44.06
2023-05-14T13:25:29.026Z,43.46
2023-05-14T13:27:55.312Z,44.45
2023-05-14T13:30:21.557Z,43.84
2023-05-14T13:32:47.817Z,44.26
2023-05-14T13:35:14.201Z,43.73
2023-05-14T13:37:40.455Z,43.41
2023-05-14T13:40:06.683Z,43.94
2023-05-14T13:42:32.941Z,42.10
2023-05-14T13:44:59.197Z,41.58
2023-05-14T13:47:25.462Z,43.06
2023-05-14T13:49:51.703Z,43.33
2023-05-14T13:52:17.934Z,42.76
2023-05-14T13:54:44.174Z,41.12
2023-05-14T13:57:10.400Z,40.71
2023-05-14T13:59:36.647Z,39.72
2023-05-14T14:02:03.054Z,41.68
2023-05-14T14:04:29.476Z,40.52
2023-05-14T14:06:55.776Z,41.56
2023-05-14T14:09:22.032Z,41.02
2023-05-14T14:11:48.303Z,40.65
2023-05-14T14:14:14.541Z,40.00
2023-05-14T14:16:40.894Z,39.00
2023-05-14T14:19:07.414Z,40.24
2023-05-14T14:21:33.745Z,41.41
2023-05-14T14:23:59.980Z,42.90
2023-05-14T14:26:26.306Z,42.28
2023-05-14T14:28:52.536Z,42.53
2023-05-14T14:31:18.815Z,41.96
2023-05-14T14:33:45.754Z,41.99
2023-05-14T14:36:11.999Z,43.52
2023-05-14T14:38:38.295Z,43.46
2023-05-14T14:41:04.575Z,43.44
2023-05-14T14:43:30.818Z,44.41
2023-05-14T14:45:57.065Z,44.41
2023-05-14T14:48:23.347Z,45.36
2023-05-14T14:50:49.583Z,45.72
2023-05-14T14:53:15.873Z,45.68
2023-05-14T14:55:42.098Z,46.82
2023-05-14T14:58:08.342Z,46.31
2023-05-14T15:00:34.601Z,46.27
2023-05-14T15:03:00.975Z,45.81
2023-05-14T15:05:27.310Z,44.60
2023-05-14T15:07:53.578Z,45.38
2023-05-14T15:10:19.847Z,44.09
2023-05-14T15:12:46.118Z,43.54
2023-05-14T15:15:12.414Z,45.26
2023-05-14T15:17:38.784Z,43.92
2023-05-14T15:20:05.109Z,40.80
2023-05-14T15:22:31.368Z,41.74
2023-05-14T15:24:57.592Z,42.91
2023-05-14T15:27:23.822Z,41.19
2023-05-14T15:29:50.042Z,43.90
2023-05-14T15:32:16.373Z,41.48
2023-05-14T15:34:42.603Z,45.54
2023-05-14T15:37:08.831Z,40.54
2023-05-14T15:39:35.076Z,41.54
2023-05-14T15:42:01.329Z,40.94
2023-05-14T15:44:27.600Z,41.62
2023-05-14T15:46:53.911Z,40.57
2023-05-14T15:49:20.197Z,42.92
2023-05-14T15:51:46.506Z,39.20
2023-05-14T15:54:12.734Z,40.28
2023-05-14T15:56:38.975Z,40.59
2023-05-14T15:59:05.193Z,40.30
2023-05-14T16:01:31.493Z,40.07
2023-05-14T16:03:57.843Z,38.82
2023-05-14T16:06:24.115Z,40.13
2023-05-14T16:08:50.381Z,41.29
2023-05-14T16:11:18.024Z,43.64
2023-05-14T16:13:44.272Z,46.44
2023-05-14T16:16:10.598Z,46.18
2023-05-14T16:18:36.886Z,43.06
2023-05-14T16:21:03.163Z,42.77
2023-05-14T16:23:29.446Z,42.48
2023-05-14T16:25:55.757Z,40.72
2023-05-14T16:28:22.024Z,40.74
2023-05-14T16:30:48.247Z,39.97
2023-05-14T16:33:14.484Z,40.89
2023-05-14T16:35:40.719Z,43.30
2023-05-14T16:38:06.977Z,40.99
2023-05-14T16:40:33.254Z,41.22
2023-05-14T16:42:59.556Z,42.55
2023-05-14T16:45:26.086Z,40.83
2023-05-14T16:47:52.582Z,39.05
2023-05-14T16:50:18.832Z,38.64
2023-05-14T16:52:45.072Z,38.62
2023-05-14T16:55:11.300Z,38.89
2023-05-14T16:57:37.562Z,38.38
2023-05-14T17:00:03.799Z,37.79
2023-05-14T17:02:30.139Z,38.03
2023-05-14T17:04:56.568Z,40.08
2023-05-14T17:07:22.899Z,39.82
2023-05-14T17:09:49.203Z,42.00
2023-05-14T17:12:15.446Z,41.89
2023-05-14T17:14:41.681Z,42.71
2023-05-14T17:17:07.956Z,42.87
2023-05-14T17:19:34.299Z,43.71
2023-05-14T17:22:00.624Z,45.00
2023-05-14T17:24:26.862Z,45.12
2023-05-14T17:26:53.122Z,44.62
2023-05-14T17:29:19.407Z,45.80
2023-05-14T17:31:45.854Z,45.66
2023-05-14T17:34:12.222Z,47.27
2023-05-14T17:36:38.476Z,47.54
2023-05-14T17:39:04.746Z,47.73
2023-05-14T17:41:31.003Z,47.89
2023-05-14T17:43:57.271Z,48.53
2023-05-14T17:46:23.562Z,47.35
2023-05-14T17:48:49.836Z,47.96
2023-05-14T17:51:16.074Z,48.27
2023-05-14T17:53:42.312Z,47.39
2023-05-14T17:56:08.556Z,46.83
2023-05-14T17:58:35.294Z,47.55
2023-05-14T18:01:01.588Z,49.58
2023-05-14T18:03:27.999Z,48.70
2023-05-14T18:05:54.276Z,49.13
2023-05-14T18:08:20.515Z,50.67
2023-05-14T18:10:46.742Z,49.14
2023-05-14T18:13:12.962Z,49.10
2023-05-14T18:15:39.197Z,47.63
2023-05-14T18:18:05.497Z,47.87
2023-05-14T18:20:33.376Z,48.39
2023-05-14T18:23:00.322Z,46.17
2023-05-14T18:25:26.756Z,47.38
2023-05-14T18:27:53.088Z,46.78
2023-05-14T18:30:19.319Z,47.38
2023-05-14T18:32:45.631Z,48.15
2023-05-14T18:35:11.950Z,48.86
2023-05-14T18:37:38.185Z,49.30
2023-05-14T18:40:04.419Z,48.60
2023-05-14T18:42:30.682Z,49.71
2023-05-14T18:44:56.976Z,49.51
2023-05-14T18:47:23.231Z,49.95
2023-05-14T18:49:49.470Z,50.69
2023-05-14T18:52:15.754Z,50.58
2023-05-14T18:54:41.999Z,49.49
2023-05-14T18:57:08.240Z,50.11
2023-05-14T18:59:34.507Z,51.07
2023-05-14T19:02:00.892Z,51.07
2023-05-14T19:04:27.212Z,50.86
2023-05-14T19:06:53.471Z,51.42
2023-05-14T19:09:19.700Z,52.51
2023-05-14T19:11:45.926Z,53.27
2023-05-14T19:14:12.184Z,54.09
2023-05-14T19:16:38.473Z,55.10
2023-05-14T19:19:04.741Z,56.15
2023-05-14T19:21:31.019Z,55.78
2023-05-14T19:23:57.270Z,55.96
2023-05-14T19:26:23.532Z,56.02
2023-05-14T19:28:49.821Z,55.84
2023-05-14T19:31:16.198Z,55.53
2023-05-14T19:33:42.456Z,56.08
2023-05-14T19:36:08.686Z,56.33
2023-05-14T19:38:34.943Z,56.23
2023-05-14T19:41:01.200Z,56.84
2023-05-14T19:43:27.445Z,57.43
2023-05-14T19:45:53.676Z,58.20
2023-05-14T19:48:19.979Z,58.87
2023-05-14T19:50:46.235Z,57.32
2023-05-14T19:53:12.530Z,57.28
2023-05-14T19:55:38.770Z,57.66
2023-05-14T19:58:05.009Z,57.76
2023-05-14T20:00:31.265Z,57.95
2023-05-14T20:02:57.744Z,58.36
2023-05-14T20:05:24.104Z,58.72
2023-05-14T20:07:50.354Z,58.56
2023-05-14T20:10:16.601Z,59.01
2023-05-14T20:12:42.831Z,58.88
2023-05-14T20:15:09.071Z,58.45
2023-05-14T20:17:35.335Z,58.68
2023-05-14T20:20:01.669Z,58.81
2023-05-14T20:22:27.936Z,59.56
2023-05-14T20:24:54.191Z,59.61
2023-05-14T20:27:20.430Z,60.67
2023-05-14T20:29:46.730Z,60.13
2023-05-14T20:32:12.954Z,59.82
2023-05-14T20:34:39.179Z,59.45
2023-05-14T20:37:05.482Z,60.21
2023-05-14T20:39:31.722Z,59.87
2023-05-14T20:41:57.960Z,59.20
2023-05-14T20:44:24.188Z,59.51
2023-05-14T20:46:50.505Z,59.47
2023-05-14T20:49:16.842Z,60.75
2023-05-14T20:51:43.117Z,60.34
2023-05-14T20:54:09.398Z,60.00
2023-05-14T20:56:35.624Z,60.13
2023-05-14T20:59:01.858Z,60.91
2023-05-14T21:01:28.176Z,60.56
2023-05-14T21:03:54.642Z,60.84
2023-05-14T21:06:21.163Z,60.61
2023-05-14T21:08:47.413Z,61.36
2023-05-14T21:11:13.652Z,62.07
2023-05-14T21:13:39.876Z,62.19
2023-05-14T21:16:06.111Z,62.00
2023-05-14T21:18:32.455Z,61.94
2023-05-14T21:20:58.695Z,61.76
2023-05-14T21:23:24.926Z,62.05
2023-05-14T21:25:51.195Z,62.56
2023-05-14T21:28:17.420Z,62.79
2023-05-14T21:30:43.647Z,63.43
2023-05-14T21:33:10.032Z,63.24
2023-05-14T21:35:36.317Z,64.78
2023-05-14T21:38:02.590Z,63.97
2023-05-14T21:40:28.890Z,63.70
2023-05-14T21:42:55.124Z,64.18
2023-05-14T21:45:23.387Z,63.85
2023-05-14T21:47:50.023Z,64.38
2023-05-14T21:50:16.368Z,64.12
2023-05-14T21:52:42.610Z,65.18
2023-05-14T21:55:08.854Z,65.38
2023-05-14T21:57:35.095Z,66.25
2023-05-14T22:00:01.347Z,66.12
2023-05-14T22:02:27.599Z,66.63
2023-05-14T22:04:53.844Z,66.94
2023-05-14T22:07:20.063Z,66.47
2023-05-14T22:09:46.283Z,66.94
2023-05-14T22:12:16.842Z,66.67
2023-05-14T22:14:53.654Z,66.96
2023-05-14T22:17:19.932Z,66.84
2023-05-14T22:19:46.162Z,66.03
2023-05-14T22:22:12.386Z,66.34
2023-05-14T22:24:38.635Z,66.03
2023-05-14T22:27:04.902Z,66.41
2023-05-14T22:29:31.152Z,66.77
2023-05-14T22:31:57.552Z,67.19
2023-05-14T22:34:23.993Z,67.21
2023-05-14T22:36:50.340Z,66.86
2023-05-14T22:39:16.601Z,67.18
2023-05-14T22:41:42.847Z,66.87
2023-05-14T22:44:09.077Z,66.88
2023-05-14T22:46:35.381Z,66.52
2023-05-14T22:49:01.628Z,66.77
2023-05-14T22:51:27.851Z,66.94
2023-05-14T22:53:54.118Z,67.99
2023-05-14T22:56:20.398Z,67.25
2023-05-14T22:58:46.645Z,66.44
2023-05-14T23:01:12.941Z,66.53
2023-05-14T23:03:39.244Z,65.32
2023-05-14T23:06:05.502Z,64.94
2023-05-14T23:08:31.742Z,64.19
2023-05-14T23:10:57.982Z,63.25
2023-05-14T23:13:24.269Z,63.21
2023-05-14T23:15:50.502Z,62.98
2023-05-14T23:18:16.805Z,65.11
2023-05-14T23:20:43.176Z,66.91
2023-05-14T23:23:09.416Z,67.35
2023-05-14T23:25:35.682Z,69.91
2023-05-14T23:28:01.928Z,71.32
2023-05-14T23:30:28.168Z,70.66
2023-05-14T23:32:54.619Z,70.09
2023-05-14T23:35:20.898Z,69.50
2023-05-14T23:37:47.422Z,69.43
2023-05-14T23:40:13.755Z,69.05
2023-05-14T23:42:39.992Z,70.00
2023-05-14T23:45:06.202Z,70.38
2023-05-14T23:47:32.468Z,69.81
2023-05-14T23:49:58.737Z,69.38
2023-05-14T23:52:24.964Z,69.17
2023-05-14T23:54:51.173Z,69.17
2023-05-14T23:57:17.391Z,69.17
2023-05-14T23:59:43.596Z,69.57
